Oregon State Flying Club

The Oregon State Flying Club is a non-profit organization committed to providing safe and inexpensive flying to the Oregon State University and Linn-Benton Community College communities. The Club currently owns three aircraft based at the Corvallis Airport for training, travel, and recreational purposes. Founded in 1952 and incorporated in 1956 the OSFC is one of the oldest continuously active flying clubs in the United States.

News & Announcements

Monthly Board Meeting

Next Meeting: Wednesday, March 11, 6pm, location TBD

Current METAR KCVO

Raw METAR:  KCVO 031955Z AUTO 06004KT 10SM CLR 11/02 A3022 RMK AO1

This is a report for Corvallis Municipal Automatic Weather Observing / Reporting System, United States. The report was made 20 minutes ago, at 19:55 UTC. The wind was blowing at a speed of 4.6 miles per hour (2.1 meters per second) from east/northeast (060°). The temperature was 52 °F (11 °C), with a dew-point at 36 °F (2 °C). The atmospheric pressure was 30.22 inHg (1023 hPa). The relative humidity was 53.8%. The sky was clear. The overall visibility was 10.0 miles (16.1 kilometers).